sensor_id;sensor_type;location;lat;lon;timestamp;temperature;humidity
20091;DHT22;10205;49.678;6.560;2022-08-21T00:00:14;26.00;39.50
20091;DHT22;10205;49.678;6.560;2022-08-21T00:02:45;26.00;39.70
20091;DHT22;10205;49.678;6.560;2022-08-21T00:05:14;25.90;39.60
20091;DHT22;10205;49.678;6.560;2022-08-21T00:07:41;25.90;39.60
20091;DHT22;10205;49.678;6.560;2022-08-21T00:10:10;25.90;39.70
20091;DHT22;10205;49.678;6.560;2022-08-21T00:12:38;25.80;39.80
20091;DHT22;10205;49.678;6.560;2022-08-21T00:15:10;25.80;39.80
20091;DHT22;10205;49.678;6.560;2022-08-21T00:17:40;25.80;39.90
20091;DHT22;10205;49.678;6.560;2022-08-21T00:20:12;25.70;40.40
20091;DHT22;10205;49.678;6.560;2022-08-21T00:22:41;25.60;40.10
20091;DHT22;10205;49.678;6.560;2022-08-21T00:25:10;25.60;40.10
20091;DHT22;10205;49.678;6.560;2022-08-21T00:27:38;25.60;40.30
20091;DHT22;10205;49.678;6.560;2022-08-21T00:30:11;25.50;40.80
20091;DHT22;10205;49.678;6.560;2022-08-21T00:32:40;25.40;40.20
20091;DHT22;10205;49.678;6.560;2022-08-21T00:35:09;25.40;40.30
20091;DHT22;10205;49.678;6.560;2022-08-21T00:37:40;25.30;40.40
20091;DHT22;10205;49.678;6.560;2022-08-21T00:40:11;25.30;40.50
20091;DHT22;10205;49.678;6.560;2022-08-21T00:42:42;25.30;40.50
20091;DHT22;10205;49.678;6.560;2022-08-21T00:45:11;25.20;40.50
20091;DHT22;10205;49.678;6.560;2022-08-21T00:47:38;25.20;40.70
20091;DHT22;10205;49.678;6.560;2022-08-21T00:50:08;25.10;40.60
20091;DHT22;10205;49.678;6.560;2022-08-21T00:52:37;25.10;40.80
20091;DHT22;10205;49.678;6.560;2022-08-21T00:55:08;25.00;40.80
20091;DHT22;10205;49.678;6.560;2022-08-21T00:57:42;25.00;40.80
20091;DHT22;10205;49.678;6.560;2022-08-21T01:00:16;25.00;41.10
20091;DHT22;10205;49.678;6.560;2022-08-21T01:02:46;25.00;41.10
20091;DHT22;10205;49.678;6.560;2022-08-21T01:05:14;24.90;41.00
20091;DHT22;10205;49.678;6.560;2022-08-21T01:07:42;24.90;41.10
20091;DHT22;10205;49.678;6.560;2022-08-21T01:10:11;24.80;41.10
20091;DHT22;10205;49.678;6.560;2022-08-21T01:12:40;24.80;41.80
20091;DHT22;10205;49.678;6.560;2022-08-21T01:15:09;24.70;41.40
20091;DHT22;10205;49.678;6.560;2022-08-21T01:17:38;24.70;41.40
20091;DHT22;10205;49.678;6.560;2022-08-21T01:20:08;24.60;41.50
20091;DHT22;10205;49.678;6.560;2022-08-21T01:22:40;24.60;41.50
20091;DHT22;10205;49.678;6.560;2022-08-21T01:25:09;24.50;42.30
20091;DHT22;10205;49.678;6.560;2022-08-21T01:27:37;24.50;41.70
20091;DHT22;10205;49.678;6.560;2022-08-21T01:30:10;24.40;41.70
20091;DHT22;10205;49.678;6.560;2022-08-21T01:32:44;24.40;41.90
20091;DHT22;10205;49.678;6.560;2022-08-21T01:35:13;24.40;41.80
20091;DHT22;10205;49.678;6.560;2022-08-21T01:37:44;24.30;41.90
20091;DHT22;10205;49.678;6.560;2022-08-21T01:40:13;24.30;42.10
20091;DHT22;10205;49.678;6.560;2022-08-21T01:42:43;24.20;42.00
20091;DHT22;10205;49.678;6.560;2022-08-21T01:45:12;24.20;42.10
20091;DHT22;10205;49.678;6.560;2022-08-21T01:47:40;24.20;42.20
20091;DHT22;10205;49.678;6.560;2022-08-21T01:50:11;24.10;42.10
20091;DHT22;10205;49.678;6.560;2022-08-21T01:52:42;24.10;42.30
20091;DHT22;10205;49.678;6.560;2022-08-21T01:55:11;24.00;42.30
20091;DHT22;10205;49.678;6.560;2022-08-21T01:57:39;24.00;42.40
20091;DHT22;10205;49.678;6.560;2022-08-21T02:00:09;24.00;42.60
20091;DHT22;10205;49.678;6.560;2022-08-21T02:02:39;23.90;42.50
20091;DHT22;10205;49.678;6.560;2022-08-21T02:05:08;23.90;42.50
20091;DHT22;10205;49.678;6.560;2022-08-21T02:07:37;23.80;42.60
20091;DHT22;10205;49.678;6.560;2022-08-21T02:10:10;23.80;42.60
20091;DHT22;10205;49.678;6.560;2022-08-21T02:12:38;23.80;42.90
20091;DHT22;10205;49.678;6.560;2022-08-21T02:15:07;23.70;42.70
20091;DHT22;10205;49.678;6.560;2022-08-21T02:17:40;23.70;43.70
20091;DHT22;10205;49.678;6.560;2022-08-21T02:20:10;23.70;43.50
20091;DHT22;10205;49.678;6.560;2022-08-21T02:22:41;23.60;43.30
20091;DHT22;10205;49.678;6.560;2022-08-21T02:25:11;23.60;43.20
20091;DHT22;10205;49.678;6.560;2022-08-21T02:27:39;23.50;43.20
20091;DHT22;10205;49.678;6.560;2022-08-21T02:30:10;23.50;43.20
20091;DHT22;10205;49.678;6.560;2022-08-21T02:32:39;23.50;43.30
20091;DHT22;10205;49.678;6.560;2022-08-21T02:35:08;23.40;43.30
20091;DHT22;10205;49.678;6.560;2022-08-21T02:37:43;23.40;43.40
20091;DHT22;10205;49.678;6.560;2022-08-21T02:40:15;23.40;43.50
20091;DHT22;10205;49.678;6.560;2022-08-21T02:42:45;23.40;43.50
20091;DHT22;10205;49.678;6.560;2022-08-21T02:45:13;23.30;43.50
20091;DHT22;10205;49.678;6.560;2022-08-21T02:47:47;23.30;43.50
20091;DHT22;10205;49.678;6.560;2022-08-21T02:50:19;23.20;43.50
20091;DHT22;10205;49.678;6.560;2022-08-21T02:52:49;23.20;43.50
20091;DHT22;10205;49.678;6.560;2022-08-21T02:55:20;23.20;43.80
20091;DHT22;10205;49.678;6.560;2022-08-21T02:57:47;23.10;43.60
20091;DHT22;10205;49.678;6.560;2022-08-21T03:00:16;23.10;43.60
20091;DHT22;10205;49.678;6.560;2022-08-21T03:02:43;23.00;43.60
20091;DHT22;10205;49.678;6.560;2022-08-21T03:05:12;23.00;43.50
20091;DHT22;10205;49.678;6.560;2022-08-21T03:07:41;23.00;43.70
20091;DHT22;10205;49.678;6.560;2022-08-21T03:10:10;22.90;43.70
20091;DHT22;10205;49.678;6.560;2022-08-21T03:12:39;22.90;43.70
20091;DHT22;10205;49.678;6.560;2022-08-21T03:15:10;22.90;43.80
20091;DHT22;10205;49.678;6.560;2022-08-21T03:17:39;22.90;44.00
20091;DHT22;10205;49.678;6.560;2022-08-21T03:20:07;22.80;44.00
20091;DHT22;10205;49.678;6.560;2022-08-21T03:22:35;22.80;44.00
20091;DHT22;10205;49.678;6.560;2022-08-21T03:25:03;22.70;44.00
20091;DHT22;10205;49.678;6.560;2022-08-21T03:27:31;22.70;44.00
20091;DHT22;10205;49.678;6.560;2022-08-21T03:30:01;22.70;44.00
20091;DHT22;10205;49.678;6.560;2022-08-21T03:32:30;22.60;44.10
20091;DHT22;10205;49.678;6.560;2022-08-21T03:34:57;22.60;44.10
20091;DHT22;10205;49.678;6.560;2022-08-21T03:37:26;22.60;44.20
20091;DHT22;10205;49.678;6.560;2022-08-21T03:39:53;22.50;44.20
20091;DHT22;10205;49.678;6.560;2022-08-21T03:42:21;22.50;44.20
20091;DHT22;10205;49.678;6.560;2022-08-21T03:44:48;22.50;44.20
20091;DHT22;10205;49.678;6.560;2022-08-21T03:47:16;22.40;44.20
20091;DHT22;10205;49.678;6.560;2022-08-21T03:49:44;22.40;44.50
20091;DHT22;10205;49.678;6.560;2022-08-21T03:52:11;22.40;44.40
20091;DHT22;10205;49.678;6.560;2022-08-21T03:54:38;22.40;44.90
20091;DHT22;10205;49.678;6.560;2022-08-21T03:57:07;22.30;44.60
20091;DHT22;10205;49.678;6.560;2022-08-21T03:59:35;22.30;44.70
20091;DHT22;10205;49.678;6.560;2022-08-21T04:02:05;22.20;44.70
20091;DHT22;10205;49.678;6.560;2022-08-21T04:04:35;22.20;44.70
20091;DHT22;10205;49.678;6.560;2022-08-21T04:07:03;22.20;44.80
20091;DHT22;10205;49.678;6.560;2022-08-21T04:09:30;22.10;44.70
20091;DHT22;10205;49.678;6.560;2022-08-21T04:11:58;22.10;44.80
20091;DHT22;10205;49.678;6.560;2022-08-21T04:14:26;22.10;44.90
20091;DHT22;10205;49.678;6.560;2022-08-21T04:16:55;22.00;45.00
20091;DHT22;10205;49.678;6.560;2022-08-21T04:19:24;22.00;45.00
20091;DHT22;10205;49.678;6.560;2022-08-21T04:21:52;22.00;45.60
20091;DHT22;10205;49.678;6.560;2022-08-21T04:24:19;21.90;45.00
20091;DHT22;10205;49.678;6.560;2022-08-21T04:26:47;21.90;45.00
20091;DHT22;10205;49.678;6.560;2022-08-21T04:29:14;21.80;45.00
20091;DHT22;10205;49.678;6.560;2022-08-21T04:31:41;21.80;45.40
20091;DHT22;10205;49.678;6.560;2022-08-21T04:34:09;21.80;46.60
20091;DHT22;10205;49.678;6.560;2022-08-21T04:36:36;21.80;45.40
20091;DHT22;10205;49.678;6.560;2022-08-21T04:39:05;21.70;45.40
20091;DHT22;10205;49.678;6.560;2022-08-21T04:41:32;21.70;45.40
20091;DHT22;10205;49.678;6.560;2022-08-21T04:44:00;21.60;45.50
20091;DHT22;10205;49.678;6.560;2022-08-21T04:46:27;21.60;45.70
20091;DHT22;10205;49.678;6.560;2022-08-21T04:48:54;21.60;46.00
20091;DHT22;10205;49.678;6.560;2022-08-21T04:51:24;21.50;45.70
20091;DHT22;10205;49.678;6.560;2022-08-21T04:53:57;21.50;45.70
20091;DHT22;10205;49.678;6.560;2022-08-21T04:56:31;21.50;45.70
20091;DHT22;10205;49.678;6.560;2022-08-21T04:59:10;21.50;46.60
20091;DHT22;10205;49.678;6.560;2022-08-21T05:01:42;21.40;46.40
20091;DHT22;10205;49.678;6.560;2022-08-21T05:04:13;21.40;46.30
20091;DHT22;10205;49.678;6.560;2022-08-21T05:06:46;21.30;46.30
20091;DHT22;10205;49.678;6.560;2022-08-21T05:09:17;21.30;46.10
20091;DHT22;10205;49.678;6.560;2022-08-21T05:11:47;21.30;46.70
20091;DHT22;10205;49.678;6.560;2022-08-21T05:14:17;21.20;46.10
20091;DHT22;10205;49.678;6.560;2022-08-21T05:16:45;21.20;46.10
20091;DHT22;10205;49.678;6.560;2022-08-21T05:19:13;21.20;46.30
20091;DHT22;10205;49.678;6.560;2022-08-21T05:21:42;21.10;46.50
20091;DHT22;10205;49.678;6.560;2022-08-21T05:24:13;21.10;46.40
20091;DHT22;10205;49.678;6.560;2022-08-21T05:26:40;21.10;46.40
20091;DHT22;10205;49.678;6.560;2022-08-21T05:29:09;21.10;46.40
20091;DHT22;10205;49.678;6.560;2022-08-21T05:31:36;21.00;46.40
20091;DHT22;10205;49.678;6.560;2022-08-21T05:34:04;21.00;46.30
20091;DHT22;10205;49.678;6.560;2022-08-21T05:36:31;21.00;46.40
20091;DHT22;10205;49.678;6.560;2022-08-21T05:38:58;21.00;46.40
20091;DHT22;10205;49.678;6.560;2022-08-21T05:41:25;21.00;46.40
20091;DHT22;10205;49.678;6.560;2022-08-21T05:43:53;21.00;46.70
20091;DHT22;10205;49.678;6.560;2022-08-21T05:46:21;20.90;46.70
20091;DHT22;10205;49.678;6.560;2022-08-21T05:48:49;20.90;46.70
20091;DHT22;10205;49.678;6.560;2022-08-21T05:51:16;20.90;46.70
20091;DHT22;10205;49.678;6.560;2022-08-21T05:53:44;20.90;46.70
20091;DHT22;10205;49.678;6.560;2022-08-21T05:56:12;20.80;46.70
20091;DHT22;10205;49.678;6.560;2022-08-21T05:58:40;20.80;46.70
20091;DHT22;10205;49.678;6.560;2022-08-21T06:01:09;20.80;46.70
20091;DHT22;10205;49.678;6.560;2022-08-21T06:03:40;20.80;46.80
20091;DHT22;10205;49.678;6.560;2022-08-21T06:06:08;20.70;46.80
20091;DHT22;10205;49.678;6.560;2022-08-21T06:08:36;20.80;46.80
20091;DHT22;10205;49.678;6.560;2022-08-21T06:11:04;20.70;46.80
20091;DHT22;10205;49.678;6.560;2022-08-21T06:13:32;20.70;46.80
20091;DHT22;10205;49.678;6.560;2022-08-21T06:16:02;20.70;46.80
20091;DHT22;10205;49.678;6.560;2022-08-21T06:18:32;20.70;47.30
20091;DHT22;10205;49.678;6.560;2022-08-21T06:21:01;20.70;47.20
20091;DHT22;10205;49.678;6.560;2022-08-21T06:23:28;20.70;47.70
20091;DHT22;10205;49.678;6.560;2022-08-21T06:25:56;20.70;48.40
20091;DHT22;10205;49.678;6.560;2022-08-21T06:28:23;20.70;47.60
20091;DHT22;10205;49.678;6.560;2022-08-21T06:30:50;20.60;47.40
20091;DHT22;10205;49.678;6.560;2022-08-21T06:33:17;20.60;47.50
20091;DHT22;10205;49.678;6.560;2022-08-21T06:35:44;20.60;48.70
20091;DHT22;10205;49.678;6.560;2022-08-21T06:38:13;20.60;47.90
20091;DHT22;10205;49.678;6.560;2022-08-21T06:40:41;20.60;48.20
20091;DHT22;10205;49.678;6.560;2022-08-21T06:43:10;20.60;48.50
20091;DHT22;10205;49.678;6.560;2022-08-21T06:45:42;20.60;48.90
20091;DHT22;10205;49.678;6.560;2022-08-21T06:48:11;20.60;48.40
20091;DHT22;10205;49.678;6.560;2022-08-21T06:50:39;20.60;49.10
20091;DHT22;10205;49.678;6.560;2022-08-21T06:53:09;20.60;48.70
20091;DHT22;10205;49.678;6.560;2022-08-21T06:55:40;20.60;50.40
20091;DHT22;10205;49.678;6.560;2022-08-21T06:58:08;20.60;49.10
20091;DHT22;10205;49.678;6.560;2022-08-21T07:00:39;20.60;49.40
20091;DHT22;10205;49.678;6.560;2022-08-21T07:03:15;20.60;49.00
20091;DHT22;10205;49.678;6.560;2022-08-21T07:05:43;20.60;50.50
20091;DHT22;10205;49.678;6.560;2022-08-21T07:08:13;20.60;50.30
20091;DHT22;10205;49.678;6.560;2022-08-21T07:10:41;20.70;49.30
20091;DHT22;10205;49.678;6.560;2022-08-21T07:13:09;20.70;51.10
20091;DHT22;10205;49.678;6.560;2022-08-21T07:15:36;20.70;50.90
20091;DHT22;10205;49.678;6.560;2022-08-21T07:18:04;20.70;50.00
20091;DHT22;10205;49.678;6.560;2022-08-21T07:20:32;20.80;49.90
20091;DHT22;10205;49.678;6.560;2022-08-21T07:23:03;20.80;51.20
20091;DHT22;10205;49.678;6.560;2022-08-21T07:25:34;20.80;51.30
20091;DHT22;10205;49.678;6.560;2022-08-21T07:28:03;20.80;50.90
20091;DHT22;10205;49.678;6.560;2022-08-21T07:30:31;20.90;50.70
20091;DHT22;10205;49.678;6.560;2022-08-21T07:32:58;20.90;50.40
20091;DHT22;10205;49.678;6.560;2022-08-21T07:35:25;21.00;51.10
20091;DHT22;10205;49.678;6.560;2022-08-21T07:37:53;21.00;51.40
20091;DHT22;10205;49.678;6.560;2022-08-21T07:40:20;21.10;50.80
20091;DHT22;10205;49.678;6.560;2022-08-21T07:42:48;21.10;51.60
20091;DHT22;10205;49.678;6.560;2022-08-21T07:45:19;21.20;50.90
20091;DHT22;10205;49.678;6.560;2022-08-21T07:47:48;21.20;50.60
20091;DHT22;10205;49.678;6.560;2022-08-21T07:50:15;21.30;50.50
20091;DHT22;10205;49.678;6.560;2022-08-21T07:52:43;21.30;50.70
20091;DHT22;10205;49.678;6.560;2022-08-21T07:55:15;21.30;51.00
20091;DHT22;10205;49.678;6.560;2022-08-21T07:57:44;21.40;51.00
20091;DHT22;10205;49.678;6.560;2022-08-21T08:00:15;21.40;50.50
20091;DHT22;10205;49.678;6.560;2022-08-21T08:02:48;21.50;50.60
20091;DHT22;10205;49.678;6.560;2022-08-21T08:05:17;21.50;51.10
20091;DHT22;10205;49.678;6.560;2022-08-21T08:07:47;21.50;50.80
20091;DHT22;10205;49.678;6.560;2022-08-21T08:10:15;21.60;50.90
20091;DHT22;10205;49.678;6.560;2022-08-21T08:12:44;21.70;51.10
20091;DHT22;10205;49.678;6.560;2022-08-21T08:15:14;21.80;50.70
20091;DHT22;10205;49.678;6.560;2022-08-21T08:17:42;21.80;50.50
20091;DHT22;10205;49.678;6.560;2022-08-21T08:20:12;21.90;50.20
20091;DHT22;10205;49.678;6.560;2022-08-21T08:22:41;22.00;50.30
20091;DHT22;10205;49.678;6.560;2022-08-21T08:25:09;22.10;50.20
20091;DHT22;10205;49.678;6.560;2022-08-21T08:27:38;22.10;49.70
20091;DHT22;10205;49.678;6.560;2022-08-21T08:30:09;22.20;49.70
20091;DHT22;10205;49.678;6.560;2022-08-21T08:32:38;22.30;49.90
20091;DHT22;10205;49.678;6.560;2022-08-21T08:35:06;22.40;49.80
20091;DHT22;10205;49.678;6.560;2022-08-21T08:37:35;22.50;49.80
20091;DHT22;10205;49.678;6.560;2022-08-21T08:40:06;22.60;49.40
20091;DHT22;10205;49.678;6.560;2022-08-21T08:42:36;22.60;49.40
20091;DHT22;10205;49.678;6.560;2022-08-21T08:45:07;22.80;49.40
20091;DHT22;10205;49.678;6.560;2022-08-21T08:47:39;22.90;49.80
20091;DHT22;10205;49.678;6.560;2022-08-21T08:50:13;23.00;49.60
20091;DHT22;10205;49.678;6.560;2022-08-21T08:52:54;23.10;49.10
20091;DHT22;10205;49.678;6.560;2022-08-21T08:55:30;23.20;48.80
20091;DHT22;10205;49.678;6.560;2022-08-21T08:58:02;23.30;48.50
20091;DHT22;10205;49.678;6.560;2022-08-21T09:00:30;23.40;48.40
20091;DHT22;10205;49.678;6.560;2022-08-21T09:03:01;23.50;48.10
20091;DHT22;10205;49.678;6.560;2022-08-21T09:05:40;23.60;48.00
20091;DHT22;10205;49.678;6.560;2022-08-21T09:08:36;23.70;47.50
20091;DHT22;10205;49.678;6.560;2022-08-21T09:11:22;23.80;47.80
20091;DHT22;10205;49.678;6.560;2022-08-21T09:14:04;24.00;47.20
20091;DHT22;10205;49.678;6.560;2022-08-21T09:16:46;24.00;47.10
20091;DHT22;10205;49.678;6.560;2022-08-21T09:19:28;24.20;46.70
20091;DHT22;10205;49.678;6.560;2022-08-21T09:22:09;24.30;46.20
20091;DHT22;10205;49.678;6.560;2022-08-21T09:24:51;24.40;45.60
20091;DHT22;10205;49.678;6.560;2022-08-21T09:27:25;24.60;45.00
20091;DHT22;10205;49.678;6.560;2022-08-21T09:29:56;24.60;45.30
20091;DHT22;10205;49.678;6.560;2022-08-21T09:32:28;24.70;45.30
20091;DHT22;10205;49.678;6.560;2022-08-21T09:35:00;24.80;45.00
20091;DHT22;10205;49.678;6.560;2022-08-21T09:37:33;25.00;45.10
20091;DHT22;10205;49.678;6.560;2022-08-21T09:40:21;25.10;44.80
20091;DHT22;10205;49.678;6.560;2022-08-21T09:42:57;25.20;43.60
20091;DHT22;10205;49.678;6.560;2022-08-21T09:45:27;25.30;43.60
20091;DHT22;10205;49.678;6.560;2022-08-21T09:47:55;25.40;43.80
20091;DHT22;10205;49.678;6.560;2022-08-21T09:50:25;25.50;43.60
20091;DHT22;10205;49.678;6.560;2022-08-21T09:52:58;25.60;43.50
20091;DHT22;10205;49.678;6.560;2022-08-21T09:55:33;25.70;43.00
20091;DHT22;10205;49.678;6.560;2022-08-21T09:58:34;25.90;42.60
20091;DHT22;10205;49.678;6.560;2022-08-21T10:01:04;26.00;42.60
20091;DHT22;10205;49.678;6.560;2022-08-21T10:03:33;26.10;42.10
20091;DHT22;10205;49.678;6.560;2022-08-21T10:06:02;26.20;42.20
20091;DHT22;10205;49.678;6.560;2022-08-21T10:08:35;26.30;41.80
20091;DHT22;10205;49.678;6.560;2022-08-21T10:11:08;26.30;41.80
20091;DHT22;10205;49.678;6.560;2022-08-21T10:13:46;26.40;41.80
20091;DHT22;10205;49.678;6.560;2022-08-21T10:16:32;26.50;41.20
20091;DHT22;10205;49.678;6.560;2022-08-21T10:19:17;26.60;41.40
20091;DHT22;10205;49.678;6.560;2022-08-21T10:21:59;26.70;40.70
20091;DHT22;10205;49.678;6.560;2022-08-21T10:24:41;26.80;40.60
20091;DHT22;10205;49.678;6.560;2022-08-21T10:27:22;26.90;39.60
20091;DHT22;10205;49.678;6.560;2022-08-21T10:30:02;26.90;38.80
20091;DHT22;10205;49.678;6.560;2022-08-21T10:32:52;27.00;38.90
20091;DHT22;10205;49.678;6.560;2022-08-21T10:35:40;27.00;39.10
20091;DHT22;10205;49.678;6.560;2022-08-21T10:38:58;27.10;39.10
20091;DHT22;10205;49.678;6.560;2022-08-21T10:41:48;27.20;38.90
20091;DHT22;10205;49.678;6.560;2022-08-21T10:44:32;27.30;38.80
20091;DHT22;10205;49.678;6.560;2022-08-21T10:47:10;27.40;38.10
20091;DHT22;10205;49.678;6.560;2022-08-21T10:49:45;27.50;38.40
20091;DHT22;10205;49.678;6.560;2022-08-21T10:52:46;27.60;39.00
20091;DHT22;10205;49.678;6.560;2022-08-21T10:55:26;27.70;38.10
20091;DHT22;10205;49.678;6.560;2022-08-21T10:58:01;27.80;38.00
20091;DHT22;10205;49.678;6.560;2022-08-21T11:00:40;27.90;37.30
20091;DHT22;10205;49.678;6.560;2022-08-21T11:03:15;27.90;37.70
20091;DHT22;10205;49.678;6.560;2022-08-21T11:05:50;28.00;37.20
20091;DHT22;10205;49.678;6.560;2022-08-21T11:08:22;28.10;37.20
20091;DHT22;10205;49.678;6.560;2022-08-21T11:10:59;28.10;36.90
20091;DHT22;10205;49.678;6.560;2022-08-21T11:13:35;28.20;36.70
20091;DHT22;10205;49.678;6.560;2022-08-21T11:16:14;28.30;36.20
20091;DHT22;10205;49.678;6.560;2022-08-21T11:18:57;28.40;35.70
20091;DHT22;10205;49.678;6.560;2022-08-21T11:21:34;28.40;35.30
20091;DHT22;10205;49.678;6.560;2022-08-21T11:24:17;28.50;36.10
20091;DHT22;10205;49.678;6.560;2022-08-21T11:27:01;28.60;35.60
20091;DHT22;10205;49.678;6.560;2022-08-21T11:29:34;28.60;36.20
20091;DHT22;10205;49.678;6.560;2022-08-21T11:32:27;28.70;35.10
20091;DHT22;10205;49.678;6.560;2022-08-21T11:35:15;28.70;35.50
20091;DHT22;10205;49.678;6.560;2022-08-21T11:37:58;28.80;35.50
20091;DHT22;10205;49.678;6.560;2022-08-21T11:40:59;28.90;36.30
20091;DHT22;10205;49.678;6.560;2022-08-21T11:43:48;28.90;34.60
20091;DHT22;10205;49.678;6.560;2022-08-21T11:46:29;28.90;34.80
20091;DHT22;10205;49.678;6.560;2022-08-21T11:49:29;29.00;34.50
20091;DHT22;10205;49.678;6.560;2022-08-21T11:52:08;29.00;34.90
20091;DHT22;10205;49.678;6.560;2022-08-21T11:54:44;29.10;34.20
20091;DHT22;10205;49.678;6.560;2022-08-21T11:57:19;29.10;34.50
20091;DHT22;10205;49.678;6.560;2022-08-21T11:59:52;29.20;34.90
20091;DHT22;10205;49.678;6.560;2022-08-21T12:02:28;29.30;33.70
20091;DHT22;10205;49.678;6.560;2022-08-21T12:05:04;29.30;33.90
20091;DHT22;10205;49.678;6.560;2022-08-21T12:07:37;29.40;34.10
20091;DHT22;10205;49.678;6.560;2022-08-21T12:10:09;29.40;34.60
20091;DHT22;10205;49.678;6.560;2022-08-21T12:12:40;29.50;34.10
20091;DHT22;10205;49.678;6.560;2022-08-21T12:15:27;29.50;33.70
20091;DHT22;10205;49.678;6.560;2022-08-21T12:18:01;29.60;34.30
20091;DHT22;10205;49.678;6.560;2022-08-21T12:20:42;29.70;34.40
20091;DHT22;10205;49.678;6.560;2022-08-21T12:23:29;29.70;33.60
20091;DHT22;10205;49.678;6.560;2022-08-21T12:26:03;29.80;33.40
20091;DHT22;10205;49.678;6.560;2022-08-21T12:28:45;29.90;33.30
20091;DHT22;10205;49.678;6.560;2022-08-21T12:31:24;29.90;33.60
20091;DHT22;10205;49.678;6.560;2022-08-21T12:33:55;29.90;32.50
20091;DHT22;10205;49.678;6.560;2022-08-21T12:36:34;29.90;32.60
20091;DHT22;10205;49.678;6.560;2022-08-21T12:39:14;29.90;32.40
20091;DHT22;10205;49.678;6.560;2022-08-21T12:41:49;30.00;33.00
20091;DHT22;10205;49.678;6.560;2022-08-21T12:44:24;30.10;33.50
20091;DHT22;10205;49.678;6.560;2022-08-21T12:47:01;30.10;33.40
20091;DHT22;10205;49.678;6.560;2022-08-21T12:49:34;30.20;32.50
20091;DHT22;10205;49.678;6.560;2022-08-21T12:52:11;30.30;32.90
20091;DHT22;10205;49.678;6.560;2022-08-21T12:54:45;30.30;32.50
20091;DHT22;10205;49.678;6.560;2022-08-21T12:57:19;30.30;33.00
20091;DHT22;10205;49.678;6.560;2022-08-21T12:59:53;30.40;32.00
20091;DHT22;10205;49.678;6.560;2022-08-21T13:02:24;30.40;32.60
20091;DHT22;10205;49.678;6.560;2022-08-21T13:04:55;30.50;32.40
20091;DHT22;10205;49.678;6.560;2022-08-21T13:07:28;30.60;32.70
20091;DHT22;10205;49.678;6.560;2022-08-21T13:10:02;30.60;32.10
20091;DHT22;10205;49.678;6.560;2022-08-21T13:12:32;30.70;32.20
20091;DHT22;10205;49.678;6.560;2022-08-21T13:15:05;30.80;31.40
20091;DHT22;10205;49.678;6.560;2022-08-21T13:17:35;30.80;30.80
20091;DHT22;10205;49.678;6.560;2022-08-21T13:20:09;30.90;31.50
20091;DHT22;10205;49.678;6.560;2022-08-21T13:22:46;30.90;31.00
20091;DHT22;10205;49.678;6.560;2022-08-21T13:25:15;30.90;30.70
20091;DHT22;10205;49.678;6.560;2022-08-21T13:27:56;30.90;31.00
20091;DHT22;10205;49.678;6.560;2022-08-21T13:30:25;31.00;31.00
20091;DHT22;10205;49.678;6.560;2022-08-21T13:32:56;31.00;31.10
20091;DHT22;10205;49.678;6.560;2022-08-21T13:35:28;31.00;30.50
20091;DHT22;10205;49.678;6.560;2022-08-21T13:38:04;31.00;30.30
20091;DHT22;10205;49.678;6.560;2022-08-21T13:40:40;31.10;30.20
20091;DHT22;10205;49.678;6.560;2022-08-21T13:43:12;31.10;30.90
20091;DHT22;10205;49.678;6.560;2022-08-21T13:45:44;31.10;30.00
20091;DHT22;10205;49.678;6.560;2022-08-21T13:48:14;31.10;30.20
20091;DHT22;10205;49.678;6.560;2022-08-21T13:50:42;31.20;30.20
20091;DHT22;10205;49.678;6.560;2022-08-21T13:53:23;31.30;30.10
20091;DHT22;10205;49.678;6.560;2022-08-21T13:55:57;31.30;29.70
20091;DHT22;10205;49.678;6.560;2022-08-21T13:58:26;31.40;30.30
20091;DHT22;10205;49.678;6.560;2022-08-21T14:00:56;31.40;29.70
20091;DHT22;10205;49.678;6.560;2022-08-21T14:03:31;31.50;29.90
20091;DHT22;10205;49.678;6.560;2022-08-21T14:06:00;31.50;29.90
20091;DHT22;10205;49.678;6.560;2022-08-21T14:08:34;31.60;29.70
20091;DHT22;10205;49.678;6.560;2022-08-21T14:11:05;31.60;29.30
20091;DHT22;10205;49.678;6.560;2022-08-21T14:13:37;31.70;29.40
20091;DHT22;10205;49.678;6.560;2022-08-21T14:16:15;31.70;28.60
20091;DHT22;10205;49.678;6.560;2022-08-21T14:18:49;31.70;29.10
20091;DHT22;10205;49.678;6.560;2022-08-21T14:21:29;31.80;29.00
20091;DHT22;10205;49.678;6.560;2022-08-21T14:24:08;31.80;29.70
20091;DHT22;10205;49.678;6.560;2022-08-21T14:26:45;31.90;28.90
20091;DHT22;10205;49.678;6.560;2022-08-21T14:29:16;31.90;29.10
20091;DHT22;10205;49.678;6.560;2022-08-21T14:31:50;32.00;28.90
20091;DHT22;10205;49.678;6.560;2022-08-21T14:34:19;32.00;28.60
20091;DHT22;10205;49.678;6.560;2022-08-21T14:36:48;32.00;28.60
20091;DHT22;10205;49.678;6.560;2022-08-21T14:39:18;32.00;28.80
20091;DHT22;10205;49.678;6.560;2022-08-21T14:41:46;32.00;28.30
20091;DHT22;10205;49.678;6.560;2022-08-21T14:44:14;32.00;27.60
20091;DHT22;10205;49.678;6.560;2022-08-21T14:46:43;32.10;28.30
20091;DHT22;10205;49.678;6.560;2022-08-21T14:49:11;32.10;28.20
20091;DHT22;10205;49.678;6.560;2022-08-21T14:51:38;32.10;28.00
20091;DHT22;10205;49.678;6.560;2022-08-21T14:54:06;32.10;27.50
20091;DHT22;10205;49.678;6.560;2022-08-21T14:56:38;32.00;27.20
20091;DHT22;10205;49.678;6.560;2022-08-21T14:59:07;32.00;26.80
20091;DHT22;10205;49.678;6.560;2022-08-21T15:01:37;32.00;27.70
20091;DHT22;10205;49.678;6.560;2022-08-21T15:04:05;32.00;27.40
20091;DHT22;10205;49.678;6.560;2022-08-21T15:06:32;32.00;27.50
20091;DHT22;10205;49.678;6.560;2022-08-21T15:09:01;32.00;27.30
20091;DHT22;10205;49.678;6.560;2022-08-21T15:11:29;32.00;27.20
20091;DHT22;10205;49.678;6.560;2022-08-21T15:14:02;31.90;26.90
20091;DHT22;10205;49.678;6.560;2022-08-21T15:16:34;31.90;27.20
20091;DHT22;10205;49.678;6.560;2022-08-21T15:19:02;31.90;27.30
20091;DHT22;10205;49.678;6.560;2022-08-21T15:21:30;31.90;27.40
20091;DHT22;10205;49.678;6.560;2022-08-21T15:23:57;31.80;27.00
20091;DHT22;10205;49.678;6.560;2022-08-21T15:26:25;31.90;26.90
20091;DHT22;10205;49.678;6.560;2022-08-21T15:28:53;31.80;27.30
20091;DHT22;10205;49.678;6.560;2022-08-21T15:31:21;31.90;27.60
20091;DHT22;10205;49.678;6.560;2022-08-21T15:33:48;31.90;27.70
20091;DHT22;10205;49.678;6.560;2022-08-21T15:36:17;31.90;27.50
20091;DHT22;10205;49.678;6.560;2022-08-21T15:38:44;31.90;27.70
20091;DHT22;10205;49.678;6.560;2022-08-21T15:41:14;31.90;27.60
20091;DHT22;10205;49.678;6.560;2022-08-21T15:43:46;31.90;27.60
20091;DHT22;10205;49.678;6.560;2022-08-21T15:46:16;31.90;26.60
20091;DHT22;10205;49.678;6.560;2022-08-21T15:48:46;31.90;27.10
20091;DHT22;10205;49.678;6.560;2022-08-21T15:51:14;31.90;27.50
20091;DHT22;10205;49.678;6.560;2022-08-21T15:53:43;31.90;27.20
20091;DHT22;10205;49.678;6.560;2022-08-21T15:56:17;31.90;27.90
20091;DHT22;10205;49.678;6.560;2022-08-21T15:58:48;32.00;27.80